Redstone Arsenal, Alabama
Current Conditions -  °F | °C
As of 9:53 AM on Tuesday 21 Oct 2014 (Local Time) from KHSV Reporting Station
Clear Clear  
Wind Chill: 63°   Ceiling: Unl
Heat Index: 63°   Visibility: 10mi
Dew Point: 53°   Wind: 0mph
Humidity: 70%   Direction: NA
Pressure: 30.08"   Gusts: NA
Location:  34.6546°N, 86.6455°W
Report Text: KHSV 211453Z 00000KT 10SM CLR 17/12 A3008 RMK AO2 SLP182 T01720117 51012
Loading
Personal Weather Stations






























Interactive Weather Map
Tropical Storm Tracking
New forecast layout! Learn more

10-Day Weather Forecast

Advertisements
Track Severe Weather on mobile